Time;durP1;ratioP1;P1;durP2;ratioP2;P2;SDS_P1;SDS_P2;PMS_P1;PMS_P2;Temp;Humidity;BMP_temperature;BMP_pressure;BME280_temperature;BME280_humidity;BME280_pressure;Samples;Min_cycle;Max_cycle;Signal;HPM_P1;HPM_P2
2023/07/28 00:02:59;;;;;;;;;;;;;;;17.02;82.16;99841.09;15529519;28;20049;-52
2023/07/28 00:10:32;;;;;;;6.22;4.97;;;;;;;17.34;81.65;99835.28;15558327;28;19922;-55
2023/07/28 00:18:06;;;;;;;5.32;4.82;;;;;;;17.12;82.14;99826.69;15562594;28;20446;-52
2023/07/28 00:25:39;;;;;;;5.88;4.47;;;;;;;17.26;81.56;99816.88;15562806;28;20477;-55
2023/07/28 00:33:13;;;;;;;5.53;3.70;;;;;;;17.36;81.94;99817.94;15554981;28;20034;-53
2023/07/28 00:40:46;;;;;;;6.43;3.25;;;;;;;17.37;82.05;99814.13;15534423;28;20384;-55
2023/07/28 00:48:22;;;;;;;4.70;3.22;;;;;;;17.47;81.66;99825.72;15560391;28;20529;-55
2023/07/28 00:56:00;;;;;;;6.57;3.15;;;;;;;17.22;82.62;99812.28;15558782;28;20112;-53
2023/07/28 01:03:34;;;;;;;;;;;;;;;17.46;81.72;99815.97;15558738;28;20442;-53
2023/07/28 01:11:07;;;;;;;5.85;2.60;;;;;;;17.52;81.73;99804.00;15531761;28;20016;-52
2023/07/28 01:18:44;;;;;;;5.10;2.47;;;;;;;17.89;80.41;99791.88;15541399;28;20046;-54
2023/07/28 01:26:26;;;;;;;4.97;2.50;;;;;;;17.77;80.75;99788.72;15525306;28;20049;-51
2023/07/28 01:33:59;;;;;;;9.18;3.00;;;;;;;17.74;81.09;99789.28;15501232;28;20042;-53
2023/07/28 01:41:34;;;;;;;6.32;3.05;;;;;;;17.87;80.59;99790.56;15556527;28;20065;-50
2023/07/28 01:49:06;;;;;;;5.63;3.35;;;;;;;17.92;80.47;99790.53;15533051;28;20557;-52
2023/07/28 01:56:41;;;;;;;4.97;3.40;;;;;;;17.81;81.49;99793.31;15532273;28;20096;-53
2023/07/28 02:04:15;;;;;;;6.85;3.45;;;;;;;17.69;81.96;99797.41;15537361;28;20042;-53
2023/07/28 02:11:50;;;;;;;6.13;3.58;;;;;;;17.51;82.09;99799.66;15545212;28;20491;-50
2023/07/28 02:19:22;;;;;;;6.25;3.38;;;;;;;17.51;82.62;99794.25;15537998;28;20050;-53
2023/07/28 02:26:57;;;;;;;10.00;3.20;;;;;;;17.66;82.02;99797.97;15512720;28;20050;-50
2023/07/28 02:34:32;;;;;;;6.13;3.13;;;;;;;17.75;81.82;99786.25;15530328;28;20415;-51
2023/07/28 02:42:07;;;;;;;7.22;3.25;;;;;;;17.60;82.07;99778.19;15521719;28;20096;-51
2023/07/28 02:49:42;;;;;;;6.90;3.33;;;;;;;17.81;81.24;99774.31;15536695;28;20045;-54
2023/07/28 02:57:16;;;;;;;7.90;3.40;;;;;;;17.61;82.87;99777.09;15510836;28;20466;-53
2023/07/28 03:04:54;;;;;;;8.45;3.95;;;;;;;17.70;81.75;99769.19;15552472;28;20449;-50
2023/07/28 03:12:31;;;;;;;9.75;4.20;;;;;;;17.59;82.04;99787.44;15551947;28;20060;-50
2023/07/28 03:20:05;;;;;;;10.65;4.97;;;;;;;17.40;84.04;99795.41;15534934;28;20554;-51
2023/07/28 03:27:44;;;;;;;5.75;4.65;;;;;;;17.70;82.46;99802.56;15547266;28;20033;-52
2023/07/28 03:35:20;;;;;;;8.30;4.72;;;;;;;17.74;81.83;99800.13;15565223;28;20458;-55
2023/07/28 03:43:03;;;;;;;11.18;5.50;;;;;;;17.23;83.54;99811.19;15547041;28;20065;-49
2023/07/28 03:50:36;;;;;;;9.13;5.18;;;;;;;17.47;83.54;99820.31;15540084;28;20513;-52
2023/07/28 03:58:10;;;;;;;;;;;;;;;17.44;83.20;99818.16;15547757;28;20042;-53
2023/07/28 04:05:43;;;;;;;9.60;6.30;;;;;;;17.15;85.11;99820.69;15562070;28;19921;-54
2023/07/28 04:13:17;;;;;;;12.07;6.85;;;;;;;17.30;85.22;99828.00;15545812;28;20042;-52
2023/07/28 04:20:51;;;;;;;9.27;6.15;;;;;;;17.68;83.60;99829.19;15542958;28;20117;-51
2023/07/28 04:28:26;;;;;;;8.90;6.68;;;;;;;17.51;83.91;99834.13;15543379;28;20048;-50
2023/07/28 04:35:59;;;;;;;9.18;6.88;;;;;;;17.38;84.21;99832.00;15560755;28;20092;-49
2023/07/28 04:43:41;;;;;;;10.88;6.28;;;;;;;17.55;84.91;99827.88;15529058;28;20332;-50
2023/07/28 04:51:14;;;;;;;8.32;6.47;;;;;;;17.97;83.00;99823.06;15544085;28;20050;-53
2023/07/28 04:59:09;;;;;;;8.60;5.72;;;;;;;18.04;81.94;99829.78;15560689;28;20042;-51
2023/07/28 05:06:42;;;;;;;9.93;6.03;;;;;;;17.80;83.15;99828.84;15558797;28;20053;-50
2023/07/28 05:14:16;;;;;;;;;;;;;;;18.20;82.20;99830.50;15542495;28;20041;-51
2023/07/28 05:21:53;;;;;;;8.88;6.22;;;;;;;18.09;82.88;99842.50;15578121;23;19921;-52
2023/07/28 05:29:31;;;;;;;8.85;6.10;;;;;;;18.11;82.41;99853.94;15540543;28;20038;-46
2023/07/28 05:37:10;;;;;;;11.50;5.72;;;;;;;17.96;82.47;99862.19;15541272;28;20072;-47
2023/07/28 05:44:44;;;;;;;7.30;5.20;;;;;;;18.00;82.71;99855.91;15556279;28;20146;-47
2023/07/28 05:52:17;;;;;;;7.45;5.20;;;;;;;18.36;81.45;99861.06;15556353;28;20069;-46
2023/07/28 05:59:52;;;;;;;9.20;5.30;;;;;;;18.32;81.46;99860.00;15555884;28;20040;-45
2023/07/28 06:07:26;;;;;;;7.53;4.47;;;;;;;18.42;81.32;99865.41;15539155;28;20443;-45
2023/07/28 06:15:01;;;;;;;5.50;5.00;;;;;;;17.88;83.25;99879.03;15498545;28;20133;-45
2023/07/28 06:22:34;;;;;;;9.10;4.85;;;;;;;18.19;83.40;99904.13;15477403;28;20080;-45
2023/07/28 06:30:09;;;;;;;;;;;;;;;18.57;81.46;99913.38;15478323;28;20037;-46
2023/07/28 06:37:41;;;;;;;5.60;3.78;;;;;;;18.36;82.48;99932.53;15494658;28;19928;-48
2023/07/28 06:45:16;;;;;;;4.03;3.63;;;;;;;18.74;81.61;99935.53;15492267;28;20045;-48
2023/07/28 06:52:49;;;;;;;3.80;3.22;;;;;;;18.52;82.54;99935.16;15493394;28;20038;-49
2023/07/28 07:00:29;;;;;;;5.47;3.08;;;;;;;18.58;81.73;99936.75;15475988;28;20089;-46
2023/07/28 07:08:05;;;;;;;5.05;3.25;;;;;;;18.96;81.59;99937.81;15493640;28;20434;-46
2023/07/28 07:15:41;;;;;;;3.25;2.95;;;;;;;19.10;80.40;99948.84;15451850;28;20410;-49
2023/07/28 07:23:14;;;;;;;6.05;2.65;;;;;;;18.68;81.72;99942.09;15432580;28;20133;-50
2023/07/28 07:30:49;;;;;;;4.18;2.50;;;;;;;18.47;82.54;99954.22;15432033;28;20515;-49
2023/07/28 07:38:22;;;;;;;4.65;2.50;;;;;;;18.70;81.60;99953.53;15407271;28;20126;-50
2023/07/28 07:45:56;;;;;;;4.63;2.85;;;;;;;20.06;80.01;99954.38;15431632;28;20050;-50
2023/07/28 07:53:29;;;;;;;4.93;1.88;;;;;;;19.44;79.79;99956.13;15414114;28;20097;-49
2023/07/28 08:01:04;;;;;;;4.18;1.50;;;;;;;20.24;77.35;99958.22;15431509;28;20413;-46
2023/07/28 08:08:36;;;;;;;3.55;1.70;;;;;;;20.32;76.46;99973.91;15432389;28;20452;-53
2023/07/28 08:16:11;;;;;;;1.80;1.10;;;;;;;21.09;72.02;99970.84;15490974;28;20058;-47
2023/07/28 08:23:44;;;;;;;2.70;1.30;;;;;;;20.66;72.61;99978.34;15501812;28;20064;-48
2023/07/28 08:31:21;;;;;;;5.47;1.10;;;;;;;21.19;72.91;99987.03;15492183;28;20034;-50
2023/07/28 08:38:54;;;;;;;4.10;1.50;;;;;;;19.85;78.10;99991.94;15483549;28;20051;-52
2023/07/28 08:46:28;;;;;;;2.35;1.65;;;;;;;20.08;79.32;99990.28;15483038;28;20046;-52
2023/07/28 08:54:01;;;;;;;4.28;1.52;;;;;;;20.78;75.01;100000.53;15499901;28;20044;-48
2023/07/28 09:01:40;;;;;;;1.40;1.30;;;;;;;20.50;74.25;100000.38;15482235;28;20113;-46
2023/07/28 09:09:14;;;;;;;1.75;1.60;;;;;;;19.80;76.70;100017.31;15500342;28;20044;-45
2023/07/28 09:16:48;;;;;;;2.75;1.77;;;;;;;19.42;79.70;100020.94;15437333;28;20047;-45
2023/07/28 09:24:22;;;;;;;2.38;2.05;;;;;;;19.77;78.92;100042.41;15436933;28;20105;-47
2023/07/28 09:32:04;;;;;;;5.03;2.47;;;;;;;19.42;80.02;100048.97;15436705;28;20201;-47
2023/07/28 09:39:38;;;;;;;3.45;2.22;;;;;;;19.60;79.11;100056.44;15437137;28;20047;-46
2023/07/28 09:47:13;;;;;;;3.17;2.70;;;;;;;19.84;78.45;100053.75;15435056;28;20133;-48
2023/07/28 09:54:52;;;;;;;2.90;2.70;;;;;;;20.12;80.14;100057.53;15419396;28;20516;-48
2023/07/28 10:02:27;;;;;;;3.35;2.50;;;;;;;20.68;77.96;100049.78;15435904;28;20046;-48
2023/07/28 10:10:01;;;;;;;3.75;2.08;;;;;;;21.63;77.04;100046.63;15435859;28;20134;-46
2023/07/28 10:17:36;;;;;;;1.83;1.73;;;;;;;21.60;73.54;100051.91;15477566;28;20046;-49
2023/07/28 10:25:11;;;;;;;2.85;1.77;;;;;;;21.90;72.84;100047.78;15494397;28;20038;-46
2023/07/28 10:32:50;;;;;;;2.47;1.83;;;;;;;21.84;69.39;100052.53;15492803;28;20038;-51
2023/07/28 10:40:30;;;;;;;4.07;2.00;;;;;;;22.32;68.72;100052.16;15476428;28;20107;-50
2023/07/28 10:48:07;;;;;;;2.58;1.50;;;;;;;22.73;66.81;100054.03;15492695;28;20086;-50
2023/07/28 10:55:43;;;;;;;1.35;1.25;;;;;;;23.54;64.65;100051.25;15494398;28;20141;-46
2023/07/28 11:03:17;;;;;;;5.28;1.50;;;;;;;23.89;61.17;100043.25;15492921;28;20073;-50
2023/07/28 11:10:51;;;;;;;1.40;1.30;;;;;;;24.29;58.79;100049.50;15492811;28;20034;-48
2023/07/28 11:18:38;;;;;;;1.77;1.50;;;;;;;23.22;61.01;100059.75;15477662;28;20042;-52
2023/07/28 11:26:14;;;;;;;1.45;1.30;;;;;;;24.72;58.49;100043.34;15524106;23;20585;-58
2023/07/28 11:33:48;;;;;;;5.68;1.13;;;;;;;24.11;57.51;100056.09;15536082;28;20054;-56
2023/07/28 11:41:22;;;;;;;2.75;1.50;;;;;;;24.95;56.22;100041.25;15553298;28;20042;-56
2023/07/28 11:49:07;;;;;;;2.55;1.50;;;;;;;23.72;56.99;100063.16;15547214;28;20049;-57
2023/07/28 11:56:41;;;;;;;1.63;1.30;;;;;;;24.47;56.38;100066.84;15547166;28;20054;-59
2023/07/28 12:04:23;;;;;;;2.67;1.55;;;;;;;24.40;56.97;100074.75;15546281;28;20064;-56
2023/07/28 12:11:58;;;;;;;3.83;1.70;;;;;;;23.88;57.97;100085.50;15547473;28;20033;-57
2023/07/28 12:19:33;;;;;;;2.50;2.00;;;;;;;22.91;68.89;100107.00;15502506;28;20047;-57
2023/07/28 12:27:11;;;;;;;3.42;2.20;;;;;;;22.43;68.85;100112.94;15507953;28;20145;-55
2023/07/28 12:34:45;;;;;;;6.03;3.30;;;;;;;22.53;70.97;100164.69;15562758;28;20037;-56
2023/07/28 12:42:18;;;;;;;2.50;1.70;;;;;;;21.44;71.25;100143.38;15562427;28;20056;-58
2023/07/28 12:49:52;;;;;;;4.22;2.10;;;;;;;21.34;73.39;100147.88;15527780;28;20054;-59
2023/07/28 12:57:25;;;;;;;3.47;2.40;;;;;;;21.14;74.98;100157.16;15559108;28;20056;-59
2023/07/28 13:04:59;;;;;;;4.03;2.80;;;;;;;21.41;74.78;100169.34;15561519;28;20129;-58
2023/07/28 13:12:33;;;;;;;4.18;2.88;;;;;;;21.36;75.81;100183.91;15535375;28;20125;-58
2023/07/28 13:20:09;;;;;;;3.28;2.47;;;;;;;21.43;75.21;100188.97;15559594;28;20399;-56
2023/07/28 13:27:42;;;;;;;3.00;2.42;;;;;;;21.41;76.96;100214.97;15559054;28;20456;-57
2023/07/28 13:35:16;;;;;;;2.13;1.92;;;;;;;21.67;75.77;100208.00;15558528;28;20537;-58
2023/07/28 13:42:49;;;;;;;1.73;1.63;;;;;;;22.10;72.17;100210.56;15555690;28;20058;-58
2023/07/28 13:50:24;;;;;;;2.10;1.90;;;;;;;22.71;72.14;100212.22;15549297;28;20529;-58
2023/07/28 13:57:58;;;;;;;2.78;2.47;;;;;;;22.17;71.59;100230.16;15557677;28;20165;-59
2023/07/28 14:05:33;;;;;;;3.22;2.70;;;;;;;21.99;73.47;100233.72;15556099;28;20046;-58
2023/07/28 14:13:06;;;;;;;1.95;1.80;;;;;;;21.67;72.32;100223.56;15525699;28;20050;-57
2023/07/28 14:20:41;;;;;;;3.72;2.50;;;;;;;22.91;71.16;100225.50;15557977;28;20042;-59
2023/07/28 14:28:14;;;;;;;2.30;2.05;;;;;;;22.89;70.60;100218.69;15536771;28;20081;-56
2023/07/28 14:35:50;;;;;;;2.92;2.60;;;;;;;22.53;69.42;100229.53;15557328;28;20061;-58
2023/07/28 14:43:25;;;;;;;3.08;2.50;;;;;;;22.80;69.95;100231.44;15538400;28;20558;-58
2023/07/28 14:50:59;;;;;;;2.85;2.65;;;;;;;23.34;69.70;100224.31;15554735;28;20399;-55
2023/07/28 14:58:33;;;;;;;3.00;2.70;;;;;;;23.09;68.42;100222.97;15538006;28;20050;-56
2023/07/28 15:06:08;;;;;;;3.25;2.70;;;;;;;22.71;69.57;100238.72;15537213;28;20045;-59
2023/07/28 15:13:41;;;;;;;3.75;3.22;;;;;;;22.72;71.04;100254.88;15525655;28;20049;-57
2023/07/28 15:21:16;;;;;;;4.70;3.45;;;;;;;22.57;71.55;100257.88;15557230;28;20053;-58
2023/07/28 15:28:49;;;;;;;5.22;3.60;;;;;;;22.31;71.81;100263.81;15565132;28;20042;-55
2023/07/28 15:36:23;;;;;;;6.50;2.75;;;;;;;21.65;72.05;100271.13;15538557;28;20080;-57
2023/07/28 15:44:00;;;;;;;3.42;2.47;;;;;;;20.86;73.07;100262.56;15564565;28;20438;-56
2023/07/28 15:51:34;;;;;;;3.67;3.05;;;;;;;21.25;73.06;100285.28;15563153;28;20525;-59
2023/07/28 15:59:07;;;;;;;4.47;2.70;;;;;;;21.02;73.97;100295.13;15541155;28;20046;-58
2023/07/28 16:06:41;;;;;;;3.13;2.83;;;;;;;20.44;75.13;100293.25;15561835;28;20038;-58
2023/07/28 16:14:14;;;;;;;3.72;3.10;;;;;;;20.62;75.35;100298.00;15562517;28;20042;-56
2023/07/28 16:21:50;;;;;;;3.53;3.22;;;;;;;20.57;75.83;100289.06;15543434;28;20092;-54
2023/07/28 16:29:23;;;;;;;3.75;3.15;;;;;;;20.36;77.25;100283.75;15562565;28;20073;-57
2023/07/28 16:36:59;;;;;;;9.15;3.90;;;;;;;20.80;75.74;100271.91;15557917;28;20085;-56
2023/07/28 16:44:31;;;;;;;7.40;4.47;;;;;;;20.73;76.78;100268.72;15560638;28;20046;-52
2023/07/28 16:52:06;;;;;;;6.45;3.78;;;;;;;20.99;75.78;100271.97;15543326;28;20346;-60
2023/07/28 16:59:39;;;;;;;5.65;3.47;;;;;;;21.16;75.71;100276.94;15562147;28;20108;-55
2023/07/28 17:07:13;;;;;;;5.70;4.18;;;;;;;21.33;75.19;100265.56;15556871;28;20112;-57
2023/07/28 17:14:47;;;;;;;9.93;4.28;;;;;;;21.17;75.94;100283.19;15549184;28;20038;-57
2023/07/28 17:22:21;;;;;;;4.45;3.70;;;;;;;21.07;75.37;100274.03;15555282;23;20491;-49
2023/07/28 17:29:54;;;;;;;5.78;3.55;;;;;;;20.63;76.50;100272.34;15550226;28;20490;-47
2023/07/28 17:37:30;;;;;;;3.65;3.33;;;;;;;20.92;75.13;100273.41;15550405;28;20049;-45
2023/07/28 17:45:06;;;;;;;5.85;2.92;;;;;;;21.22;73.92;100283.97;15551163;28;20133;-48
2023/07/28 17:52:40;;;;;;;7.97;4.20;;;;;;;20.90;75.17;100292.81;15532896;28;20041;-50
2023/07/28 18:00:14;;;;;;;4.35;3.40;;;;;;;21.34;74.06;100281.66;15534360;28;20046;-45
2023/07/28 18:07:48;;;;;;;3.70;3.30;;;;;;;21.00;74.58;100291.88;15530614;28;20246;-48
2023/07/28 18:15:21;;;;;;;5.07;3.30;;;;;;;20.76;75.24;100297.34;15550090;28;20296;-52
2023/07/28 18:22:56;;;;;;;7.18;3.88;;;;;;;20.99;73.95;100301.19;15548030;28;20042;-49
2023/07/28 18:30:29;;;;;;;5.03;3.53;;;;;;;21.01;74.17;100299.78;15530895;28;20372;-45
2023/07/28 18:38:03;;;;;;;4.53;3.90;;;;;;;20.96;74.42;100310.75;15547875;28;20104;-48
2023/07/28 18:45:36;;;;;;;6.22;4.07;;;;;;;20.57;75.67;100325.31;15546734;28;20074;-47
2023/07/28 18:53:11;;;;;;;5.00;3.90;;;;;;;21.10;73.15;100329.97;15521807;28;20046;-46
2023/07/28 19:00:43;;;;;;;6.22;4.70;;;;;;;20.80;74.08;100331.13;15548092;28;20081;-50
2023/07/28 19:08:18;;;;;;;5.82;4.70;;;;;;;20.64;74.18;100331.25;15550399;28;20190;-50
2023/07/28 19:15:51;;;;;;;5.97;4.95;;;;;;;20.85;73.55;100333.78;15546375;28;20053;-48
2023/07/28 19:23:26;;;;;;;8.40;5.70;;;;;;;20.68;73.38;100342.41;15547635;28;20084;-46
2023/07/28 19:31:04;;;;;;;6.15;4.85;;;;;;;20.61;73.25;100350.09;15534355;28;20053;-51
2023/07/28 19:38:38;;;;;;;6.07;5.47;;;;;;;20.53;73.30;100359.72;15538750;28;20050;-55
2023/07/28 19:46:11;;;;;;;9.43;6.07;;;;;;;20.39;73.33;100361.44;15542423;28;20038;-52
2023/07/28 19:53:45;;;;;;;;;;;;;;;20.40;73.36;100373.97;15544336;28;20454;-48
2023/07/28 20:01:18;;;;;;;9.55;6.47;;;;;;;20.30;73.81;100369.41;15521787;28;20339;-51
2023/07/28 20:08:52;;;;;;;7.18;6.22;;;;;;;19.60;76.53;100387.78;15549629;28;20140;-48
2023/07/28 20:16:26;;;;;;;9.65;6.30;;;;;;;19.92;75.27;100400.19;15556486;28;20045;-48
2023/07/28 20:24:00;;;;;;;;;;;;;;;19.75;76.62;100406.78;15555074;28;20129;-48
2023/07/28 20:31:34;;;;;;;11.65;6.70;;;;;;;19.91;76.69;100406.69;15555121;28;19956;-47
2023/07/28 20:39:08;;;;;;;9.95;7.57;;;;;;;20.17;76.07;100394.56;15518438;28;20298;-50
2023/07/28 20:46:43;;;;;;;10.27;7.90;;;;;;;20.45;75.20;100390.28;15536774;28;20096;-48
2023/07/28 20:54:18;;;;;;;11.85;7.38;;;;;;;20.03;76.12;100386.22;15554046;28;20146;-52
2023/07/28 21:01:51;;;;;;;8.98;8.07;;;;;;;20.40;74.95;100371.25;15549484;28;20038;-47
2023/07/28 21:09:25;;;;;;;12.27;8.45;;;;;;;20.24;75.45;100364.28;15553983;28;20061;-47
2023/07/28 21:16:59;;;;;;;9.90;8.77;;;;;;;20.00;76.23;100373.13;15553591;28;20078;-49
2023/07/28 21:24:34;;;;;;;11.98;8.27;;;;;;;19.58;77.86;100363.56;15534699;28;20104;-46
2023/07/28 21:32:08;;;;;;;13.05;8.90;;;;;;;19.87;76.79;100365.63;15534670;28;20081;-50
2023/07/28 21:39:42;;;;;;;11.10;9.18;;;;;;;19.67;77.50;100371.97;15550965;28;20050;-49
2023/07/28 21:47:15;;;;;;;10.73;8.95;;;;;;;19.95;75.96;100383.25;15522583;28;20418;-47
2023/07/28 21:54:49;;;;;;;11.32;8.70;;;;;;;19.63;77.65;100398.09;15551235;28;20479;-48
2023/07/28 22:02:25;;;;;;;11.35;9.10;;;;;;;19.71;76.94;100394.00;15532386;28;20117;-51
2023/07/28 22:10:00;;;;;;;11.35;8.73;;;;;;;19.98;75.89;100394.41;15548345;28;20082;-52
2023/07/28 22:17:33;;;;;;;13.15;8.90;;;;;;;19.85;75.89;100405.91;15533951;28;20034;-48
2023/07/28 22:25:07;;;;;;;;;;;;;;;19.20;77.67;100402.31;15547523;28;20046;-50
2023/07/28 22:32:40;;;;;;;13.05;9.15;;;;;;;19.66;76.14;100413.91;15548232;28;19944;-51
2023/07/28 22:40:15;;;;;;;10.57;9.13;;;;;;;19.03;78.38;100402.63;15514391;28;20077;-58
2023/07/28 22:47:48;;;;;;;15.85;8.63;;;;;;;19.52;75.28;100408.22;15547561;28;20042;-55
2023/07/28 22:55:24;;;;;;;11.13;8.73;;;;;;;19.38;75.71;100427.03;15547601;28;20042;-52
2023/07/28 23:02:57;;;;;;;10.85;8.57;;;;;;;19.53;74.34;100430.78;15528422;28;20065;-52
2023/07/28 23:10:31;;;;;;;;;;;;;;;19.30;74.38;100429.50;15529269;28;20046;-52
2023/07/28 23:18:05;;;;;;;10.57;8.80;;;;;;;19.40;75.47;100420.47;15547313;28;19980;-57
2023/07/28 23:25:40;;;;;;;11.23;8.70;;;;;;;19.52;74.45;100424.53;15547891;28;20046;-48
2023/07/28 23:33:14;;;;;;;10.27;8.50;;;;;;;19.35;74.27;100418.59;15529706;28;20119;-52
2023/07/28 23:40:48;;;;;;;11.93;9.90;;;;;;;19.25;75.19;100410.47;15533271;28;20348;-50
2023/07/28 23:48:21;;;;;;;12.45;8.60;;;;;;;19.17;73.93;100403.69;15538252;28;20049;-49
2023/07/28 23:55:56;;;;;;;13.52;10.00;;;;;;;19.08;74.32;100408.06;15529427;28;20129;-46
